Hovedside
METAR-TAF:

METAR-TAF

Lufthavner :

Djerba, Tunisia

breddegrad: 33-52N, lengdegrad: 010-46E, høyde over havet: 3 m

Gjeldene værobservasjon

Denne rapporten ble laget for 31 minutter siden, klokken 16:30 UTC
Vind 19 kt fra Nordøst
Temperatur 20°C
Luftfuktighet 68%
Trykk 1016 hPa
Sikt: 6000 m
Få skyer i en høyde av 1600 ft

METAR: DTTJ 261630Z 04019KT 6000 FEW016 20/14 Q1016 NOSIG

Tid: 18:01 (17:01 UTC)

Varsel

Denne rapporten ble laget for 6 timer og 1 minutter siden, klokken 11:00 UTC
Varsel gyldig fra 26. klokken 12 UTC til 27. klokken 12 UTC
Vind 14 kt fra Nord-nordøst
Sikt: 5000 m
Brutte skyer i en høyde av 1600 ft
Blir
fra 26. klokken 15 UTC til 26. klokken 17 UTC
Vind 17 kt fra Nord-nordøst med vindkast opp mot 29 kt
Sannsynlighet 30% :
Midlertidig
fra 26. klokken 17 UTC til 26. klokken 21 UTC
Sikt: 4000 m
sand

TAF: DTTJ 261100Z 2612/2712 03014KT 5000 BKN016 BECMG 2615/2617 03017G29KT PROB30 TEMPO 2617/2621 4000 SA

Værobservasjoner og værvarsel for over 4000 flyplasser (METAR- og TAF-rapporter).

Tilgjengelige stasjoner er representert av de røde og gule prikkene på kartet.

Hold musepekeren over prikken for å se navnet på stasjonen.

Klikk så for å se værobservasjoner og -varsler.

For å forandre kartet kan du klikke på den grønne knappen med svart kryss for å zoome inn, på den grønne knappen med strek for å zoome ut, eller på de grønne pilene for å se tilstøtende kart.


METAR-TAF: